createdAt,value
2023-05-06T00:00:26.508Z,11.64
2023-05-06T00:01:26.489Z,11.51
2023-05-06T00:02:27.216Z,11.49
2023-05-06T00:03:26.560Z,11.49
2023-05-06T00:04:26.499Z,11.48
2023-05-06T00:05:26.447Z,11.43
2023-05-06T00:06:26.825Z,11.48
2023-05-06T00:07:26.742Z,11.48
2023-05-06T00:08:26.435Z,11.51
2023-05-06T00:09:26.409Z,11.54
2023-05-06T00:10:26.402Z,11.55
2023-05-06T00:11:26.719Z,11.56
2023-05-06T00:12:26.393Z,11.59
2023-05-06T00:13:26.376Z,11.64
2023-05-06T00:14:26.368Z,11.58
2023-05-06T00:15:26.365Z,11.62
2023-05-06T00:16:26.725Z,11.64
2023-05-06T00:17:26.385Z,11.66
2023-05-06T00:18:26.335Z,11.67
2023-05-06T00:19:26.328Z,11.70
2023-05-06T00:20:26.634Z,11.73
2023-05-06T00:21:26.847Z,11.74
2023-05-06T00:22:26.297Z,11.77
2023-05-06T00:23:26.285Z,11.76
2023-05-06T00:24:26.288Z,11.85
2023-05-06T00:25:26.932Z,11.85
2023-05-06T00:26:26.257Z,11.87
2023-05-06T00:27:26.256Z,11.87
2023-05-06T00:28:26.242Z,11.88
2023-05-06T00:29:26.245Z,11.85
2023-05-06T00:30:27.168Z,11.89
2023-05-06T00:31:26.273Z,11.88
2023-05-06T00:32:26.213Z,11.91
2023-05-06T00:33:26.201Z,11.96
2023-05-06T00:34:26.535Z,11.99
2023-05-06T00:35:27.019Z,11.95
2023-05-06T00:36:26.164Z,11.99
2023-05-06T00:37:26.165Z,11.93
2023-05-06T00:38:26.152Z,11.93
2023-05-06T00:39:26.442Z,11.95
2023-05-06T00:40:26.131Z,11.91
2023-05-06T00:41:26.130Z,11.95
2023-05-06T00:42:26.111Z,11.96
2023-05-06T00:43:26.107Z,11.95
2023-05-06T00:44:26.401Z,11.95
2023-05-06T00:45:26.090Z,11.99
2023-05-06T00:46:26.149Z,11.99
2023-05-06T00:47:26.072Z,11.99
2023-05-06T00:48:26.353Z,12.03
2023-05-06T00:49:26.422Z,12.03
2023-05-06T00:50:26.041Z,12.03
2023-05-06T00:51:26.045Z,12.03
2023-05-06T00:52:26.020Z,11.96
2023-05-06T00:53:26.182Z,12.05
2023-05-06T00:54:26.002Z,12.08
2023-05-06T00:55:26.006Z,12.11
2023-05-06T00:56:25.991Z,12.13
2023-05-06T00:57:25.995Z,12.05
2023-05-06T00:58:26.303Z,12.10
2023-05-06T00:59:25.969Z,12.07
2023-05-06T01:00:25.952Z,12.11
2023-05-06T01:01:25.960Z,12.17
2023-05-06T01:02:33.254Z,12.14
2023-05-06T01:03:26.565Z,12.18
2023-05-06T01:04:25.920Z,12.13
2023-05-06T01:05:25.952Z,12.17
2023-05-06T01:06:25.886Z,12.18
2023-05-06T01:07:26.425Z,12.21
2023-05-06T01:08:25.870Z,12.22
2023-05-06T01:09:25.871Z,12.23
2023-05-06T01:10:25.853Z,12.26
2023-05-06T01:11:25.849Z,12.29
2023-05-06T01:12:26.173Z,12.32
2023-05-06T01:13:25.835Z,12.35
2023-05-06T01:14:25.818Z,12.47
2023-05-06T01:15:25.814Z,12.44
2023-05-06T01:16:26.592Z,12.44
2023-05-06T01:17:26.120Z,12.48
2023-05-06T01:18:25.814Z,12.44
2023-05-06T01:19:25.780Z,12.53
2023-05-06T01:20:25.768Z,12.50
2023-05-06T01:21:26.067Z,12.46
2023-05-06T01:22:25.746Z,12.41
2023-05-06T01:23:25.742Z,12.40
2023-05-06T01:24:25.728Z,12.44
2023-05-06T01:25:25.739Z,12.48
2023-05-06T01:26:26.556Z,12.44
2023-05-06T01:27:25.709Z,12.48
2023-05-06T01:28:25.690Z,12.51
2023-05-06T01:29:25.691Z,12.62
2023-05-06T01:30:26.424Z,12.59
2023-05-06T01:31:26.047Z,12.62
2023-05-06T01:32:25.690Z,12.65
2023-05-06T01:33:25.655Z,12.68
2023-05-06T01:34:25.648Z,12.68
2023-05-06T01:35:26.525Z,12.58
2023-05-06T01:36:25.633Z,12.58
2023-05-06T01:37:25.627Z,12.61
2023-05-06T01:38:25.606Z,12.55
2023-05-06T01:39:25.605Z,12.54
2023-05-06T01:40:25.894Z,12.48
2023-05-06T01:41:25.587Z,12.59
2023-05-06T01:42:25.567Z,12.61
2023-05-06T01:43:25.567Z,12.58
2023-05-06T01:44:25.925Z,12.59
2023-05-06T01:45:26.445Z,12.54
2023-05-06T01:46:25.546Z,12.59
2023-05-06T01:47:25.573Z,12.63
2023-05-06T01:48:25.531Z,12.68
2023-05-06T01:49:25.733Z,12.68
2023-05-06T01:50:25.517Z,12.66
2023-05-06T01:51:25.490Z,12.63
2023-05-06T01:52:25.485Z,12.59
2023-05-06T01:53:25.758Z,12.53
2023-05-06T01:54:25.880Z,12.53
2023-05-06T01:55:25.455Z,12.50
2023-05-06T01:56:25.457Z,12.53
2023-05-06T01:57:25.446Z,12.53
2023-05-06T01:58:25.615Z,12.44
2023-05-06T01:59:25.419Z,12.43
2023-05-06T02:00:25.435Z,12.33
2023-05-06T02:01:25.487Z,12.29
2023-05-06T02:02:25.511Z,12.25
2023-05-06T02:03:25.690Z,12.28
2023-05-06T02:04:25.385Z,12.29
2023-05-06T02:05:25.365Z,12.22
2023-05-06T02:06:25.369Z,12.17
2023-05-06T02:07:26.150Z,12.18
2023-05-06T02:08:25.345Z,12.17
2023-05-06T02:09:25.638Z,12.21
2023-05-06T02:10:25.331Z,12.15
2023-05-06T02:11:25.317Z,12.13
2023-05-06T02:12:25.651Z,12.11
2023-05-06T02:13:25.298Z,12.13
2023-05-06T02:14:25.295Z,12.11
2023-05-06T02:15:25.300Z,12.05
2023-05-06T02:16:25.330Z,12.04
2023-05-06T02:17:26.105Z,12.04
2023-05-06T02:18:25.281Z,12.07
2023-05-06T02:19:25.241Z,12.03
2023-05-06T02:20:25.234Z,11.89
2023-05-06T02:21:25.668Z,11.85
2023-05-06T02:22:25.571Z,11.85
2023-05-06T02:23:25.209Z,11.82
2023-05-06T02:24:25.207Z,11.82
2023-05-06T02:25:25.191Z,11.82
2023-05-06T02:26:26.124Z,11.77
2023-05-06T02:27:25.194Z,11.74
2023-05-06T02:28:25.185Z,11.69
2023-05-06T02:29:25.159Z,11.69
2023-05-06T02:30:25.160Z,11.66
2023-05-06T02:31:26.088Z,11.64
2023-05-06T02:32:25.527Z,11.59
2023-05-06T02:33:25.114Z,11.61
2023-05-06T02:34:25.114Z,11.69
2023-05-06T02:35:25.421Z,11.69
2023-05-06T02:36:25.472Z,11.69
2023-05-06T02:37:25.088Z,11.66
2023-05-06T02:38:25.097Z,11.73
2023-05-06T02:39:25.067Z,11.71
2023-05-06T02:40:25.328Z,11.73
2023-05-06T02:41:25.049Z,11.74
2023-05-06T02:42:25.052Z,11.80
2023-05-06T02:43:25.035Z,11.84
2023-05-06T02:44:25.031Z,11.84
2023-05-06T02:45:25.323Z,11.88
2023-05-06T02:46:25.128Z,11.88
2023-05-06T02:47:25.029Z,11.91
2023-05-06T02:48:25.019Z,11.95
2023-05-06T02:49:25.462Z,11.96
2023-05-06T02:50:25.295Z,11.87
2023-05-06T02:51:24.962Z,11.85
2023-05-06T02:52:24.971Z,11.85
2023-05-06T02:53:24.950Z,11.82
2023-05-06T02:54:25.321Z,11.79
2023-05-06T02:55:24.928Z,11.85
2023-05-06T02:56:24.968Z,11.88
2023-05-06T02:57:24.910Z,11.84
2023-05-06T02:58:24.912Z,11.84
2023-05-06T02:59:25.206Z,11.84
2023-05-06T03:00:24.893Z,11.79
2023-05-06T03:01:24.919Z,11.80
2023-05-06T03:02:24.906Z,11.85
2023-05-06T03:03:25.358Z,11.88
2023-05-06T03:04:25.308Z,11.84
2023-05-06T03:05:24.852Z,11.93
2023-05-06T03:06:24.835Z,11.93
2023-05-06T03:07:24.840Z,11.93
2023-05-06T03:08:25.166Z,11.96
2023-05-06T03:09:24.809Z,11.89
2023-05-06T03:10:24.807Z,11.89
2023-05-06T03:11:24.786Z,11.93
2023-05-06T03:12:24.793Z,11.89
2023-05-06T03:13:24.804Z,11.88
2023-05-06T03:14:24.775Z,11.88
2023-05-06T03:15:24.697Z,11.87
2023-05-06T03:16:24.753Z,11.88
2023-05-06T03:17:25.526Z,11.88
2023-05-06T03:18:24.676Z,11.87
2023-05-06T03:19:25.103Z,11.87
2023-05-06T03:20:24.667Z,11.84
2023-05-06T03:21:24.712Z,11.84
2023-05-06T03:22:24.677Z,11.80
2023-05-06T03:23:24.652Z,11.79
2023-05-06T03:24:24.624Z,11.84
2023-05-06T03:25:24.618Z,11.80
2023-05-06T03:26:24.612Z,11.89
2023-05-06T03:27:24.938Z,11.88
2023-05-06T03:28:24.586Z,11.88
2023-05-06T03:29:24.579Z,11.89
2023-05-06T03:30:24.573Z,11.91
2023-05-06T03:31:24.638Z,11.93
2023-05-06T03:32:24.987Z,11.89
2023-05-06T03:33:24.539Z,11.88
2023-05-06T03:34:24.567Z,11.89
2023-05-06T03:35:24.522Z,11.91
2023-05-06T03:36:25.424Z,11.88
2023-05-06T03:37:24.508Z,11.95
2023-05-06T03:38:24.510Z,11.99
2023-05-06T03:39:24.490Z,11.97
2023-05-06T03:40:24.486Z,12.00
2023-05-06T03:41:24.789Z,11.95
2023-05-06T03:42:24.467Z,11.96
2023-05-06T03:43:24.451Z,11.97
2023-05-06T03:44:24.448Z,11.99
2023-05-06T03:45:25.254Z,11.97
2023-05-06T03:46:25.331Z,12.03
2023-05-06T03:47:24.430Z,12.03
2023-05-06T03:48:24.417Z,11.99
2023-05-06T03:49:24.396Z,12.00
2023-05-06T03:50:24.410Z,12.03
2023-05-06T03:51:24.374Z,11.93
2023-05-06T03:52:24.373Z,11.87
2023-05-06T03:53:24.357Z,11.84
2023-05-06T03:54:24.356Z,11.80
2023-05-06T03:55:24.657Z,11.77
2023-05-06T03:56:24.338Z,11.80
2023-05-06T03:57:24.331Z,11.79
2023-05-06T03:58:24.312Z,11.82
2023-05-06T03:59:24.743Z,11.82
2023-05-06T04:00:25.050Z,11.77
2023-05-06T04:01:24.295Z,11.79
2023-05-06T04:02:24.379Z,11.77
2023-05-06T04:03:24.372Z,11.79
2023-05-06T04:04:24.531Z,11.80
2023-05-06T04:05:24.268Z,11.85
2023-05-06T04:06:24.249Z,11.82
2023-05-06T04:07:24.236Z,11.82
2023-05-06T04:08:24.734Z,11.76
2023-05-06T04:09:24.571Z,11.84
2023-05-06T04:10:24.225Z,11.79
2023-05-06T04:11:24.193Z,11.85
2023-05-06T04:12:24.206Z,11.77
2023-05-06T04:13:24.495Z,11.80
2023-05-06T04:14:24.174Z,11.80
2023-05-06T04:15:24.164Z,11.88
2023-05-06T04:16:24.174Z,11.93
2023-05-06T04:17:24.197Z,12.00
2023-05-06T04:18:24.482Z,11.99
2023-05-06T04:19:24.241Z,12.04
2023-05-06T04:20:24.133Z,12.00
2023-05-06T04:21:24.106Z,11.99
2023-05-06T04:22:24.492Z,12.00
2023-05-06T04:23:24.440Z,11.99
2023-05-06T04:24:24.082Z,11.95
2023-05-06T04:25:24.073Z,11.91
2023-05-06T04:26:24.074Z,11.87
2023-05-06T04:27:24.374Z,11.88
2023-05-06T04:28:24.053Z,11.85
2023-05-06T04:29:24.060Z,11.82
2023-05-06T04:30:24.045Z,11.85
2023-05-06T04:31:24.083Z,11.82
2023-05-06T04:32:24.813Z,11.79
2023-05-06T04:33:24.018Z,11.79
2023-05-06T04:34:24.010Z,11.93
2023-05-06T04:35:23.995Z,11.88
2023-05-06T04:36:24.751Z,11.89
2023-05-06T04:37:24.274Z,11.88
2023-05-06T04:38:23.973Z,11.88
2023-05-06T04:39:23.961Z,11.82
2023-05-06T04:40:23.951Z,11.77
2023-05-06T04:41:24.301Z,11.76
2023-05-06T04:42:23.938Z,11.74
2023-05-06T04:43:23.920Z,11.74
2023-05-06T04:44:23.923Z,11.77
2023-05-06T04:45:23.903Z,11.79
2023-05-06T04:46:24.678Z,11.80
2023-05-06T04:47:23.895Z,11.77
2023-05-06T04:48:23.890Z,11.87
2023-05-06T04:49:23.875Z,11.88
2023-05-06T04:50:24.205Z,11.91
2023-05-06T04:51:24.225Z,11.91
2023-05-06T04:52:23.849Z,11.93
2023-05-06T04:53:23.838Z,11.97
2023-05-06T04:54:23.832Z,11.95
2023-05-06T04:55:24.004Z,12.00
2023-05-06T04:56:23.810Z,12.05
2023-05-06T04:57:23.799Z,12.03
2023-05-06T04:58:23.794Z,12.11
2023-05-06T04:59:23.782Z,12.14
2023-05-06T05:00:24.677Z,12.17
2023-05-06T05:01:23.771Z,12.21
2023-05-06T05:02:23.831Z,12.23
2023-05-06T05:03:23.998Z,12.21
2023-05-06T05:04:24.196Z,12.15
2023-05-06T05:05:24.000Z,12.14
2023-05-06T05:06:23.724Z,12.11
2023-05-06T05:07:23.711Z,12.17
2023-05-06T05:08:23.703Z,12.22
2023-05-06T05:09:24.088Z,12.18
2023-05-06T05:10:23.688Z,12.17
2023-05-06T05:11:23.674Z,12.17
2023-05-06T05:12:23.665Z,12.21
2023-05-06T05:13:23.653Z,12.15
2023-05-06T05:14:23.951Z,12.32
2023-05-06T05:15:23.645Z,12.30
2023-05-06T05:16:23.658Z,12.41
2023-05-06T05:17:23.628Z,12.46
2023-05-06T05:18:23.972Z,12.50
2023-05-06T05:19:23.910Z,12.51
2023-05-06T05:20:23.603Z,12.63
2023-05-06T05:21:23.580Z,12.61
2023-05-06T05:22:23.580Z,12.63
2023-05-06T05:23:23.895Z,12.62
2023-05-06T05:24:23.574Z,12.61
2023-05-06T05:25:23.548Z,12.58
2023-05-06T05:26:23.548Z,12.62
2023-05-06T05:27:23.540Z,12.65
2023-05-06T05:28:23.553Z,12.71
2023-05-06T05:29:23.512Z,12.76
2023-05-06T05:30:23.528Z,12.73
2023-05-06T05:31:23.545Z,12.76
2023-05-06T05:32:23.778Z,12.80
2023-05-06T05:33:23.902Z,12.81
2023-05-06T05:34:23.476Z,12.81
2023-05-06T05:35:23.467Z,12.88
2023-05-06T05:36:23.488Z,12.88
2023-05-06T05:37:24.112Z,12.87
2023-05-06T05:38:23.431Z,12.80
2023-05-06T05:39:23.424Z,12.79
2023-05-06T05:40:23.427Z,12.77
2023-05-06T05:41:23.404Z,12.79
2023-05-06T05:42:23.524Z,12.73
2023-05-06T05:43:23.381Z,12.77
2023-05-06T05:44:23.399Z,12.76
2023-05-06T05:45:23.363Z,12.77
2023-05-06T05:46:23.897Z,12.77
2023-05-06T05:47:23.772Z,12.81
2023-05-06T05:48:23.342Z,12.81
2023-05-06T05:49:23.339Z,12.83
2023-05-06T05:50:23.323Z,12.84
2023-05-06T05:51:23.788Z,12.91
2023-05-06T05:52:23.303Z,12.96
2023-05-06T05:53:23.287Z,12.95
2023-05-06T05:54:23.281Z,13.02
2023-05-06T05:55:23.316Z,13.02
2023-05-06T05:56:23.281Z,13.13
2023-05-06T05:57:23.248Z,13.14
2023-05-06T05:58:23.258Z,13.17
2023-05-06T05:59:23.226Z,13.11
2023-05-06T06:00:23.596Z,13.13
2023-05-06T06:01:23.595Z,13.14
2023-05-06T06:02:23.261Z,13.13
2023-05-06T06:03:23.282Z,13.17
2023-05-06T06:04:23.191Z,13.24
2023-05-06T06:05:23.386Z,13.27
2023-05-06T06:06:23.165Z,13.36
2023-05-06T06:07:23.154Z,13.40
2023-05-06T06:08:23.144Z,13.49
2023-05-06T06:09:23.131Z,13.57
2023-05-06T06:10:23.321Z,13.68
2023-05-06T06:11:23.118Z,13.76
2023-05-06T06:12:23.097Z,13.83
2023-05-06T06:13:23.234Z,13.96
2023-05-06T06:14:23.474Z,14.01
2023-05-06T06:15:23.332Z,13.94
2023-05-06T06:16:23.118Z,13.91
2023-05-06T06:17:23.062Z,13.97
2023-05-06T06:18:23.027Z,13.98
2023-05-06T06:19:23.420Z,13.98
2023-05-06T06:20:23.003Z,14.00
2023-05-06T06:21:23.007Z,13.97
2023-05-06T06:22:22.980Z,13.94
2023-05-06T06:23:23.001Z,13.79
2023-05-06T06:24:23.286Z,13.82
2023-05-06T06:25:22.956Z,13.80
2023-05-06T06:26:22.943Z,13.78
2023-05-06T06:27:22.952Z,13.80
2023-05-06T06:28:23.455Z,13.85
2023-05-06T06:29:23.340Z,14.00
2023-05-06T06:30:22.890Z,14.08
2023-05-06T06:31:22.929Z,14.30
2023-05-06T06:32:22.962Z,14.63
2023-05-06T06:33:22.896Z,14.85
2023-05-06T06:34:22.855Z,14.96
2023-05-06T06:35:22.862Z,14.93
2023-05-06T06:36:22.837Z,15.08
2023-05-06T06:37:22.832Z,15.15
2023-05-06T06:38:22.837Z,15.38
2023-05-06T06:39:22.806Z,15.77
2023-05-06T06:40:22.804Z,16.49
2023-05-06T06:41:22.791Z,17.25
2023-05-06T06:42:22.793Z,17.52
2023-05-06T06:43:22.773Z,17.09
2023-05-06T06:44:22.984Z,16.39
2023-05-06T06:45:22.741Z,16.02
2023-05-06T06:46:22.758Z,15.59
2023-05-06T06:47:23.599Z,15.26
2023-05-06T06:48:22.707Z,15.07
2023-05-06T06:49:22.703Z,14.96
2023-05-06T06:50:22.687Z,14.83
2023-05-06T06:51:22.681Z,14.77
2023-05-06T06:52:22.984Z,15.08
2023-05-06T06:53:22.685Z,15.40
2023-05-06T06:54:22.638Z,16.46
2023-05-06T06:55:22.635Z,17.25
2023-05-06T06:56:22.916Z,18.02
2023-05-06T06:57:23.344Z,18.39
2023-05-06T06:58:22.603Z,18.76
2023-05-06T06:59:22.595Z,19.15
2023-05-06T07:00:22.569Z,19.41
2023-05-06T07:01:22.928Z,19.59
2023-05-06T07:02:22.743Z,19.96
2023-05-06T07:03:22.539Z,20.32
2023-05-06T07:04:22.563Z,20.74
2023-05-06T07:05:22.517Z,21.13
2023-05-06T07:06:22.520Z,21.47
2023-05-06T07:07:22.500Z,21.78
2023-05-06T07:08:22.480Z,22.07
2023-05-06T07:09:22.509Z,22.41
2023-05-06T07:10:22.769Z,22.64
2023-05-06T07:11:22.823Z,22.71
2023-05-06T07:12:22.430Z,22.80
2023-05-06T07:13:22.478Z,22.92
2023-05-06T07:14:22.422Z,23.08
2023-05-06T07:15:23.180Z,23.15
2023-05-06T07:16:22.415Z,23.41
2023-05-06T07:17:22.411Z,23.28
2023-05-06T07:18:22.418Z,23.26
2023-05-06T07:19:22.368Z,23.31
2023-05-06T07:20:22.693Z,22.77
2023-05-06T07:21:22.356Z,22.85
2023-05-06T07:22:22.360Z,22.70
2023-05-06T07:23:22.329Z,22.36
2023-05-06T07:24:22.661Z,22.34
2023-05-06T07:25:22.612Z,22.38
2023-05-06T07:26:22.300Z,22.51
2023-05-06T07:27:22.292Z,22.37
2023-05-06T07:28:22.312Z,22.38
2023-05-06T07:29:22.654Z,22.44
2023-05-06T07:30:23.299Z,22.61
2023-05-06T07:31:22.248Z,22.55
2023-05-06T07:32:22.257Z,22.59
2023-05-06T07:33:22.410Z,22.51
2023-05-06T07:34:22.509Z,22.44
2023-05-06T07:35:22.196Z,22.12
2023-05-06T07:36:22.188Z,22.07
2023-05-06T07:37:22.181Z,21.63
2023-05-06T07:38:22.494Z,21.04
2023-05-06T07:39:22.174Z,19.94
2023-05-06T07:40:22.141Z,19.74
2023-05-06T07:41:22.136Z,20.19
2023-05-06T07:42:22.115Z,20.19
2023-05-06T07:43:22.481Z,20.23
2023-05-06T07:44:22.098Z,20.58
2023-05-06T07:45:22.106Z,20.85
2023-05-06T07:46:22.121Z,20.46
2023-05-06T07:47:22.151Z,20.22
2023-05-06T07:48:22.183Z,19.59
2023-05-06T07:49:22.057Z,19.22
2023-05-06T07:50:22.034Z,18.68
2023-05-06T07:51:22.025Z,18.43
2023-05-06T07:52:22.329Z,18.20
2023-05-06T07:53:22.025Z,17.90
2023-05-06T07:54:21.992Z,17.76
2023-05-06T07:55:21.989Z,17.65
2023-05-06T07:56:21.963Z,18.48
2023-05-06T07:57:21.989Z,18.56
2023-05-06T07:58:21.952Z,18.71
2023-05-06T07:59:21.948Z,18.88
2023-05-06T08:00:21.929Z,19.38
2023-05-06T08:01:21.976Z,19.38
2023-05-06T08:02:22.156Z,19.39
2023-05-06T08:03:21.995Z,18.94
2023-05-06T08:04:21.959Z,19.01
2023-05-06T08:05:21.889Z,19.90
2023-05-06T08:06:22.140Z,19.96
2023-05-06T08:07:21.876Z,19.50
2023-05-06T08:08:21.848Z,19.09
2023-05-06T08:09:23.082Z,18.70
2023-05-06T08:10:21.830Z,18.82
2023-05-06T08:11:21.840Z,18.88
2023-05-06T08:12:21.799Z,19.30
2023-05-06T08:13:21.849Z,19.09
2023-05-06T08:14:21.783Z,18.71
2023-05-06T08:15:21.780Z,18.48
2023-05-06T08:16:24.583Z,18.24
2023-05-06T08:17:21.796Z,17.97
2023-05-06T08:18:23.111Z,17.65
2023-05-06T08:19:21.742Z,17.47
2023-05-06T08:20:22.241Z,17.45
2023-05-06T08:21:21.732Z,18.38
2023-05-06T08:22:21.696Z,17.99
2023-05-06T08:23:21.703Z,17.68
2023-05-06T08:24:21.700Z,17.46
2023-05-06T08:25:22.026Z,17.28
2023-05-06T08:26:21.668Z,18.46
2023-05-06T08:27:21.666Z,19.26
2023-05-06T08:28:23.088Z,18.86
2023-05-06T08:29:21.646Z,18.66
2023-05-06T08:30:22.638Z,18.57
2023-05-06T08:31:21.663Z,18.45
2023-05-06T08:32:21.618Z,19.39
2023-05-06T08:33:21.588Z,20.53
2023-05-06T08:34:21.599Z,21.26
2023-05-06T08:35:21.599Z,21.47
2023-05-06T08:36:21.548Z,20.15
2023-05-06T08:37:21.550Z,19.38
2023-05-06T08:38:21.537Z,19.04
2023-05-06T08:39:21.864Z,18.81
2023-05-06T08:40:21.557Z,18.28
2023-05-06T08:41:21.543Z,18.08
2023-05-06T08:42:21.491Z,17.91
2023-05-06T08:43:21.480Z,17.83
2023-05-06T08:44:21.787Z,17.69
2023-05-06T08:45:21.475Z,17.59
2023-05-06T08:46:21.537Z,17.62
2023-05-06T08:47:21.479Z,18.64
2023-05-06T08:48:22.428Z,19.44
2023-05-06T08:49:21.418Z,20.14
2023-05-06T08:50:21.719Z,20.63
2023-05-06T08:51:21.396Z,20.95
2023-05-06T08:52:21.424Z,21.32
2023-05-06T08:53:21.693Z,21.71
2023-05-06T08:54:21.356Z,22.07
2023-05-06T08:55:21.353Z,22.23
2023-05-06T08:56:21.333Z,22.33
2023-05-06T08:57:21.335Z,22.67
2023-05-06T08:58:21.630Z,22.96
2023-05-06T08:59:21.315Z,22.48
2023-05-06T09:00:21.304Z,22.78
2023-05-06T09:01:21.342Z,22.85
2023-05-06T09:02:21.861Z,22.80
2023-05-06T09:03:21.606Z,23.06
2023-05-06T09:04:21.252Z,23.28
2023-05-06T09:05:21.246Z,23.46
2023-05-06T09:06:21.231Z,23.45
2023-05-06T09:07:21.983Z,23.46
2023-05-06T09:08:21.215Z,23.06
2023-05-06T09:09:21.204Z,22.56
2023-05-06T09:10:21.188Z,22.81
2023-05-06T09:11:21.231Z,21.84
2023-05-06T09:12:21.500Z,21.05
2023-05-06T09:13:21.222Z,21.45
2023-05-06T09:14:21.141Z,21.82
2023-05-06T09:15:21.140Z,22.16
2023-05-06T09:16:21.811Z,22.56
2023-05-06T09:17:22.052Z,22.92
2023-05-06T09:18:21.107Z,23.04
2023-05-06T09:19:21.110Z,22.16
2023-05-06T09:20:21.087Z,21.65
2023-05-06T09:21:21.433Z,21.25
2023-05-06T09:22:21.111Z,20.93
2023-05-06T09:23:21.063Z,20.44
2023-05-06T09:24:21.047Z,19.87
2023-05-06T09:25:21.037Z,19.45
2023-05-06T09:26:21.376Z,19.23
2023-05-06T09:27:21.020Z,18.85
2023-05-06T09:28:20.997Z,18.61
2023-05-06T09:29:21.002Z,18.30
2023-05-06T09:30:21.759Z,18.20
2023-05-06T09:31:21.378Z,18.34
2023-05-06T09:32:20.972Z,18.54
2023-05-06T09:33:20.974Z,18.15
2023-05-06T09:34:20.936Z,17.96
2023-05-06T09:35:20.963Z,17.87
2023-05-06T09:36:20.914Z,18.20
2023-05-06T09:37:20.918Z,18.97
2023-05-06T09:38:20.893Z,19.62
2023-05-06T09:39:20.884Z,20.07
2023-05-06T09:40:21.213Z,20.32
2023-05-06T09:41:20.878Z,20.70
2023-05-06T09:42:20.864Z,20.85
2023-05-06T09:43:20.845Z,21.14
2023-05-06T09:44:21.168Z,21.43
2023-05-06T09:45:21.534Z,21.48
2023-05-06T09:46:20.833Z,21.55
2023-05-06T09:47:20.804Z,21.65
2023-05-06T09:48:20.788Z,21.56
2023-05-06T09:49:21.537Z,21.78
2023-05-06T09:50:20.765Z,22.03
2023-05-06T09:51:20.774Z,22.22
2023-05-06T09:52:20.819Z,21.81
2023-05-06T09:53:20.737Z,22.00
2023-05-06T09:54:21.228Z,21.63
2023-05-06T09:55:20.720Z,20.65
2023-05-06T09:56:20.702Z,20.15
2023-05-06T09:57:20.700Z,20.48
2023-05-06T09:58:21.467Z,20.68
2023-05-06T09:59:20.948Z,20.92
2023-05-06T10:00:20.661Z,20.86
2023-05-06T10:01:32.557Z,21.00
2023-05-06T10:02:20.802Z,21.26
2023-05-06T10:03:21.571Z,21.37
2023-05-06T10:04:21.102Z,21.59
2023-05-06T10:05:20.860Z,21.66
2023-05-06T10:06:20.612Z,21.82
2023-05-06T10:07:20.589Z,21.96
2023-05-06T10:08:20.892Z,21.94
2023-05-06T10:09:20.591Z,21.91
2023-05-06T10:10:20.569Z,22.03
2023-05-06T10:11:20.559Z,22.15
2023-05-06T10:12:20.974Z,22.33
2023-05-06T10:13:20.549Z,22.21
2023-05-06T10:14:20.525Z,22.28
2023-05-06T10:15:20.508Z,22.11
2023-05-06T10:16:20.587Z,21.77
2023-05-06T10:17:21.148Z,21.50
2023-05-06T10:18:20.484Z,21.20
2023-05-06T10:19:20.996Z,20.71
2023-05-06T10:20:20.460Z,20.41
2023-05-06T10:21:20.447Z,20.07
2023-05-06T10:22:21.288Z,19.72
2023-05-06T10:23:20.422Z,19.47
2023-05-06T10:24:20.420Z,19.27
2023-05-06T10:25:20.407Z,18.97
2023-05-06T10:26:20.732Z,18.93
2023-05-06T10:27:20.690Z,18.89
2023-05-06T10:28:25.549Z,18.88
2023-05-06T10:29:20.361Z,18.76
2023-05-06T10:30:20.351Z,18.71
2023-05-06T10:31:21.193Z,18.88
2023-05-06T10:32:20.335Z,18.97
2023-05-06T10:33:20.310Z,18.82
2023-05-06T10:34:20.307Z,18.71
2023-05-06T10:35:20.285Z,18.81
2023-05-06T10:36:20.681Z,19.22
2023-05-06T10:37:20.267Z,19.74
2023-05-06T10:38:20.260Z,20.15
2023-05-06T10:39:20.248Z,20.52
2023-05-06T10:40:20.933Z,20.74
2023-05-06T10:41:20.457Z,20.90
2023-05-06T10:42:20.228Z,21.25
2023-05-06T10:43:20.196Z,21.30
2023-05-06T10:44:20.213Z,21.48
2023-05-06T10:45:21.155Z,21.65
2023-05-06T10:46:20.173Z,21.74
2023-05-06T10:47:20.155Z,21.67
2023-05-06T10:48:20.155Z,21.44
2023-05-06T10:49:20.148Z,21.35
2023-05-06T10:50:20.593Z,21.50
2023-05-06T10:51:20.121Z,21.44
2023-05-06T10:52:20.111Z,21.60
2023-05-06T10:53:20.093Z,21.35
2023-05-06T10:54:20.457Z,21.16
2023-05-06T10:55:20.353Z,21.11
2023-05-06T10:56:20.066Z,21.16
2023-05-06T10:57:20.052Z,20.95
2023-05-06T10:58:20.055Z,20.64
2023-05-06T10:59:20.355Z,20.36
2023-05-06T11:00:20.040Z,20.25
2023-05-06T11:01:20.059Z,19.97
2023-05-06T11:02:20.297Z,19.78
2023-05-06T11:03:20.080Z,19.62
2023-05-06T11:04:20.211Z,19.45
2023-05-06T11:05:19.973Z,19.31
2023-05-06T11:06:19.970Z,19.17
2023-05-06T11:07:19.970Z,19.13
2023-05-06T11:08:20.353Z,19.23
2023-05-06T11:09:20.500Z,19.12
2023-05-06T11:10:19.927Z,19.16
2023-05-06T11:11:19.909Z,19.17
2023-05-06T11:12:19.911Z,19.23
2023-05-06T11:13:20.374Z,19.35
2023-05-06T11:14:19.902Z,19.49
2023-05-06T11:15:19.888Z,19.59
2023-05-06T11:16:19.869Z,19.62
2023-05-06T11:17:19.979Z,19.57
2023-05-06T11:18:20.309Z,19.79
2023-05-06T11:19:19.840Z,19.96
2023-05-06T11:20:19.871Z,20.14
2023-05-06T11:21:19.803Z,20.37
2023-05-06T11:22:20.121Z,20.58
2023-05-06T11:23:20.123Z,20.65
2023-05-06T11:24:19.781Z,20.77
2023-05-06T11:25:19.776Z,20.97
2023-05-06T11:26:19.783Z,21.07
2023-05-06T11:27:20.053Z,21.10
2023-05-06T11:28:19.735Z,21.05
2023-05-06T11:29:19.721Z,21.07
2023-05-06T11:30:19.743Z,21.19
2023-05-06T11:31:19.713Z,21.40
2023-05-06T11:32:20.524Z,21.55
2023-05-06T11:33:19.673Z,21.67
2023-05-06T11:34:19.679Z,21.80
2023-05-06T11:35:19.659Z,21.84
2023-05-06T11:36:19.724Z,21.90
2023-05-06T11:37:19.969Z,22.01
2023-05-06T11:38:19.633Z,22.09
2023-05-06T11:39:19.623Z,22.09
2023-05-06T11:40:19.610Z,22.15
2023-05-06T11:41:20.311Z,22.19
2023-05-06T11:42:19.585Z,22.34
2023-05-06T11:43:19.582Z,22.30
2023-05-06T11:44:19.571Z,22.16
2023-05-06T11:45:19.557Z,22.00
2023-05-06T11:46:19.851Z,21.63
2023-05-06T11:47:19.530Z,21.43
2023-05-06T11:48:19.551Z,21.45
2023-05-06T11:49:19.512Z,21.69
2023-05-06T11:50:19.819Z,21.93
2023-05-06T11:51:19.973Z,22.12
2023-05-06T11:52:19.482Z,22.19
2023-05-06T11:53:19.466Z,22.03
2023-05-06T11:54:19.463Z,21.90
2023-05-06T11:55:19.814Z,21.75
2023-05-06T11:56:19.442Z,21.84
2023-05-06T11:57:19.427Z,21.73
2023-05-06T11:58:19.420Z,21.90
2023-05-06T11:59:19.406Z,22.11
2023-05-06T12:00:20.117Z,22.13
2023-05-06T12:01:19.403Z,22.30
2023-05-06T12:02:19.480Z,22.52
2023-05-06T12:03:19.512Z,22.59
2023-05-06T12:04:19.944Z,22.44
2023-05-06T12:05:19.732Z,22.33
2023-05-06T12:06:19.352Z,22.52
2023-05-06T12:07:19.319Z,22.66
2023-05-06T12:08:26.686Z,22.83
2023-05-06T12:09:20.032Z,23.01
2023-05-06T12:10:19.294Z,22.88
2023-05-06T12:11:19.269Z,22.68
2023-05-06T12:12:19.283Z,22.64
2023-05-06T12:13:19.297Z,22.52
2023-05-06T12:14:19.498Z,22.53
2023-05-06T12:15:19.223Z,22.61
2023-05-06T12:16:19.289Z,22.91
2023-05-06T12:17:19.210Z,22.96
2023-05-06T12:18:19.983Z,22.73
2023-05-06T12:19:19.667Z,22.55
2023-05-06T12:20:19.177Z,22.56
2023-05-06T12:21:19.153Z,22.62
2023-05-06T12:22:19.304Z,22.43
2023-05-06T12:23:19.153Z,22.41
2023-05-06T12:24:19.152Z,22.52
2023-05-06T12:25:19.112Z,22.48
2023-05-06T12:26:19.109Z,22.52
2023-05-06T12:27:19.088Z,22.49
2023-05-06T12:28:19.105Z,22.36
2023-05-06T12:29:19.076Z,22.21
2023-05-06T12:30:19.072Z,22.46
2023-05-06T12:31:19.075Z,22.61
2023-05-06T12:32:19.072Z,22.46
2023-05-06T12:33:19.331Z,22.44
2023-05-06T12:34:19.026Z,22.61
2023-05-06T12:35:19.007Z,22.77
2023-05-06T12:36:19.096Z,22.98
2023-05-06T12:37:19.001Z,23.03
2023-05-06T12:38:18.984Z,23.13
2023-05-06T12:39:18.962Z,23.33
2023-05-06T12:40:18.962Z,23.46
2023-05-06T12:41:18.943Z,23.64
2023-05-06T12:42:18.950Z,23.60
2023-05-06T12:43:18.922Z,23.31
2023-05-06T12:44:18.916Z,23.21
2023-05-06T12:45:18.904Z,23.07
2023-05-06T12:46:18.955Z,23.08
2023-05-06T12:47:19.140Z,23.23
2023-05-06T12:48:18.874Z,23.28
2023-05-06T12:49:18.859Z,23.22
2023-05-06T12:50:18.894Z,22.92
2023-05-06T12:51:18.871Z,22.70
2023-05-06T12:52:18.834Z,22.48